Abernethy, United Kingdom
Current Conditions -  °F | °C
As of 7:50 AM on Wednesday 22 Oct 2014 (Local Time) from EGPN Reporting Station
Few Clouds Few Clouds  
Wind Chill: 46°   Ceiling: Unl
Heat Index: 46°   Visibility: 6mi
Dew Point: 41°   Wind: 3mph
Humidity: 81%   Direction: 290°WNW
Pressure: 30.03"   Gusts: NA
Location:  56.33°N, 3.31°W
Report Text: EGPN 220650Z 29003KT 9999 FEW040 08/05 Q1017
Loading
Personal Weather Stations






























Interactive Weather Map
Tropical Storm Tracking
New forecast layout! Learn more

10-Day Weather Forecast

Advertisements
Track Severe Weather on mobile